sensor_id;sensor_type;location;lat;lon;timestamp;P1;durP1;ratioP1;P2;durP2;ratioP2
8036;SDS011;4061;51.360;7.340;2022-12-07T00:00:07;36.00;;;14.80;;
8036;SDS011;4061;51.360;7.340;2022-12-07T00:02:35;26.30;;;12.97;;
8036;SDS011;4061;51.360;7.340;2022-12-07T00:05:02;28.27;;;14.00;;
8036;SDS011;4061;51.360;7.340;2022-12-07T00:07:31;31.27;;;14.20;;
8036;SDS011;4061;51.360;7.340;2022-12-07T00:09:58;35.93;;;14.40;;
8036;SDS011;4061;51.360;7.340;2022-12-07T00:12:25;30.07;;;15.73;;
8036;SDS011;4061;51.360;7.340;2022-12-07T00:14:53;31.17;;;14.60;;
8036;SDS011;4061;51.360;7.340;2022-12-07T00:17:20;32.73;;;13.67;;
8036;SDS011;4061;51.360;7.340;2022-12-07T00:19:47;33.20;;;14.70;;
8036;SDS011;4061;51.360;7.340;2022-12-07T00:22:14;27.90;;;15.77;;
8036;SDS011;4061;51.360;7.340;2022-12-07T00:24:43;32.13;;;14.30;;
8036;SDS011;4061;51.360;7.340;2022-12-07T00:27:11;31.33;;;14.53;;
8036;SDS011;4061;51.360;7.340;2022-12-07T00:29:38;29.20;;;13.77;;
8036;SDS011;4061;51.360;7.340;2022-12-07T00:32:05;28.73;;;14.47;;
8036;SDS011;4061;51.360;7.340;2022-12-07T00:34:32;37.00;;;14.57;;
8036;SDS011;4061;51.360;7.340;2022-12-07T00:36:59;28.67;;;14.30;;
8036;SDS011;4061;51.360;7.340;2022-12-07T00:39:26;30.80;;;13.80;;
8036;SDS011;4061;51.360;7.340;2022-12-07T00:41:55;30.40;;;15.23;;
8036;SDS011;4061;51.360;7.340;2022-12-07T00:44:22;26.90;;;14.23;;
8036;SDS011;4061;51.360;7.340;2022-12-07T00:46:49;29.00;;;13.17;;
8036;SDS011;4061;51.360;7.340;2022-12-07T00:49:16;25.57;;;12.97;;
8036;SDS011;4061;51.360;7.340;2022-12-07T00:51:43;27.37;;;13.97;;
8036;SDS011;4061;51.360;7.340;2022-12-07T00:54:11;33.00;;;15.47;;
8036;SDS011;4061;51.360;7.340;2022-12-07T00:56:38;34.03;;;14.63;;
8036;SDS011;4061;51.360;7.340;2022-12-07T00:59:06;27.93;;;14.20;;
8036;SDS011;4061;51.360;7.340;2022-12-07T01:01:35;25.53;;;13.67;;
8036;SDS011;4061;51.360;7.340;2022-12-07T01:04:03;29.17;;;13.63;;
8036;SDS011;4061;51.360;7.340;2022-12-07T01:06:30;26.80;;;13.93;;
8036;SDS011;4061;51.360;7.340;2022-12-07T01:08:57;30.77;;;14.20;;
8036;SDS011;4061;51.360;7.340;2022-12-07T01:11:25;33.10;;;14.70;;
8036;SDS011;4061;51.360;7.340;2022-12-07T01:13:52;25.17;;;13.37;;
8036;SDS011;4061;51.360;7.340;2022-12-07T01:16:22;27.10;;;14.40;;
8036;SDS011;4061;51.360;7.340;2022-12-07T01:18:50;27.43;;;14.47;;
8036;SDS011;4061;51.360;7.340;2022-12-07T01:21:18;27.97;;;13.40;;
8036;SDS011;4061;51.360;7.340;2022-12-07T01:23:46;28.13;;;13.77;;
8036;SDS011;4061;51.360;7.340;2022-12-07T01:26:14;29.60;;;13.80;;
8036;SDS011;4061;51.360;7.340;2022-12-07T01:28:42;32.30;;;14.63;;
8036;SDS011;4061;51.360;7.340;2022-12-07T01:31:10;25.83;;;13.70;;
8036;SDS011;4061;51.360;7.340;2022-12-07T01:33:41;26.87;;;13.50;;
8036;SDS011;4061;51.360;7.340;2022-12-07T01:36:14;28.27;;;13.97;;
8036;SDS011;4061;51.360;7.340;2022-12-07T01:38:41;28.67;;;13.87;;
8036;SDS011;4061;51.360;7.340;2022-12-07T01:41:09;33.83;;;15.13;;
8036;SDS011;4061;51.360;7.340;2022-12-07T01:43:36;29.87;;;14.57;;
8036;SDS011;4061;51.360;7.340;2022-12-07T01:46:03;32.77;;;13.30;;
8036;SDS011;4061;51.360;7.340;2022-12-07T01:48:31;28.80;;;14.53;;
8036;SDS011;4061;51.360;7.340;2022-12-07T01:51:01;29.57;;;14.00;;
8036;SDS011;4061;51.360;7.340;2022-12-07T01:53:30;28.07;;;13.60;;
8036;SDS011;4061;51.360;7.340;2022-12-07T01:55:59;35.97;;;16.13;;
8036;SDS011;4061;51.360;7.340;2022-12-07T01:58:26;36.20;;;16.23;;
8036;SDS011;4061;51.360;7.340;2022-12-07T02:00:53;33.63;;;15.03;;
8036;SDS011;4061;51.360;7.340;2022-12-07T02:03:22;29.27;;;14.77;;
8036;SDS011;4061;51.360;7.340;2022-12-07T02:05:49;36.77;;;16.20;;
8036;SDS011;4061;51.360;7.340;2022-12-07T02:08:18;43.30;;;18.47;;
8036;SDS011;4061;51.360;7.340;2022-12-07T02:10:45;44.23;;;16.37;;
8036;SDS011;4061;51.360;7.340;2022-12-07T02:13:13;40.43;;;15.20;;
8036;SDS011;4061;51.360;7.340;2022-12-07T02:15:45;37.70;;;17.07;;
8036;SDS011;4061;51.360;7.340;2022-12-07T02:18:16;39.53;;;16.13;;
8036;SDS011;4061;51.360;7.340;2022-12-07T02:20:45;33.03;;;15.27;;
8036;SDS011;4061;51.360;7.340;2022-12-07T02:26:18;40.43;;;17.53;;
8036;SDS011;4061;51.360;7.340;2022-12-07T02:29:07;40.33;;;16.90;;
8036;SDS011;4061;51.360;7.340;2022-12-07T02:31:37;40.13;;;15.80;;
8036;SDS011;4061;51.360;7.340;2022-12-07T02:34:08;35.10;;;15.27;;
8036;SDS011;4061;51.360;7.340;2022-12-07T02:36:38;37.57;;;15.63;;
8036;SDS011;4061;51.360;7.340;2022-12-07T02:39:06;45.30;;;17.10;;
8036;SDS011;4061;51.360;7.340;2022-12-07T02:41:36;29.77;;;14.90;;
8036;SDS011;4061;51.360;7.340;2022-12-07T02:44:09;38.57;;;16.87;;
8036;SDS011;4061;51.360;7.340;2022-12-07T02:46:38;46.43;;;16.47;;
8036;SDS011;4061;51.360;7.340;2022-12-07T02:49:07;41.27;;;16.40;;
8036;SDS011;4061;51.360;7.340;2022-12-07T02:51:38;43.10;;;16.93;;
8036;SDS011;4061;51.360;7.340;2022-12-07T02:54:07;36.00;;;16.23;;
8036;SDS011;4061;51.360;7.340;2022-12-07T02:56:37;37.53;;;16.03;;
8036;SDS011;4061;51.360;7.340;2022-12-07T02:59:10;38.63;;;16.30;;
8036;SDS011;4061;51.360;7.340;2022-12-07T03:01:40;42.40;;;16.03;;
8036;SDS011;4061;51.360;7.340;2022-12-07T03:04:18;36.63;;;14.73;;
8036;SDS011;4061;51.360;7.340;2022-12-07T03:06:49;36.67;;;14.67;;
8036;SDS011;4061;51.360;7.340;2022-12-07T03:09:20;30.53;;;14.53;;
8036;SDS011;4061;51.360;7.340;2022-12-07T03:11:48;35.33;;;14.43;;
8036;SDS011;4061;51.360;7.340;2022-12-07T03:14:18;37.80;;;15.77;;
8036;SDS011;4061;51.360;7.340;2022-12-07T03:16:49;37.87;;;16.40;;
8036;SDS011;4061;51.360;7.340;2022-12-07T03:19:19;35.30;;;15.07;;
8036;SDS011;4061;51.360;7.340;2022-12-07T03:21:49;39.20;;;16.30;;
8036;SDS011;4061;51.360;7.340;2022-12-07T03:24:18;41.07;;;16.07;;
8036;SDS011;4061;51.360;7.340;2022-12-07T03:26:47;38.17;;;15.67;;
8036;SDS011;4061;51.360;7.340;2022-12-07T03:29:16;36.27;;;13.57;;
8036;SDS011;4061;51.360;7.340;2022-12-07T03:31:46;34.63;;;14.00;;
8036;SDS011;4061;51.360;7.340;2022-12-07T03:34:16;38.60;;;14.70;;
8036;SDS011;4061;51.360;7.340;2022-12-07T03:36:45;34.33;;;15.23;;
8036;SDS011;4061;51.360;7.340;2022-12-07T03:39:16;38.37;;;14.60;;
8036;SDS011;4061;51.360;7.340;2022-12-07T03:41:44;32.60;;;13.87;;
8036;SDS011;4061;51.360;7.340;2022-12-07T03:44:12;31.73;;;14.10;;
8036;SDS011;4061;51.360;7.340;2022-12-07T03:46:42;34.83;;;13.80;;
8036;SDS011;4061;51.360;7.340;2022-12-07T03:49:13;31.83;;;14.90;;
8036;SDS011;4061;51.360;7.340;2022-12-07T03:51:44;35.97;;;14.57;;
8036;SDS011;4061;51.360;7.340;2022-12-07T03:54:13;31.27;;;14.27;;
8036;SDS011;4061;51.360;7.340;2022-12-07T03:56:42;31.73;;;13.53;;
8036;SDS011;4061;51.360;7.340;2022-12-07T03:59:10;33.47;;;13.97;;
8036;SDS011;4061;51.360;7.340;2022-12-07T04:01:38;29.47;;;14.13;;
8036;SDS011;4061;51.360;7.340;2022-12-07T04:04:05;33.90;;;13.97;;
8036;SDS011;4061;51.360;7.340;2022-12-07T04:06:33;33.57;;;12.93;;
8036;SDS011;4061;51.360;7.340;2022-12-07T04:09:01;26.77;;;12.73;;
8036;SDS011;4061;51.360;7.340;2022-12-07T04:11:28;33.53;;;13.93;;
8036;SDS011;4061;51.360;7.340;2022-12-07T04:13:55;25.27;;;11.97;;
8036;SDS011;4061;51.360;7.340;2022-12-07T04:16:39;34.23;;;12.27;;
8036;SDS011;4061;51.360;7.340;2022-12-07T04:19:07;29.97;;;13.07;;
8036;SDS011;4061;51.360;7.340;2022-12-07T04:21:35;24.43;;;12.57;;
8036;SDS011;4061;51.360;7.340;2022-12-07T04:24:03;31.07;;;12.97;;
8036;SDS011;4061;51.360;7.340;2022-12-07T04:26:30;32.90;;;13.70;;
8036;SDS011;4061;51.360;7.340;2022-12-07T04:28:57;26.63;;;12.47;;
8036;SDS011;4061;51.360;7.340;2022-12-07T04:31:25;35.23;;;13.53;;
8036;SDS011;4061;51.360;7.340;2022-12-07T04:33:52;33.80;;;13.57;;
8036;SDS011;4061;51.360;7.340;2022-12-07T04:36:19;32.87;;;13.47;;
8036;SDS011;4061;51.360;7.340;2022-12-07T04:38:47;29.80;;;13.00;;
8036;SDS011;4061;51.360;7.340;2022-12-07T04:41:15;36.57;;;14.57;;
8036;SDS011;4061;51.360;7.340;2022-12-07T04:43:42;39.10;;;13.40;;
8036;SDS011;4061;51.360;7.340;2022-12-07T04:46:09;36.83;;;14.50;;
8036;SDS011;4061;51.360;7.340;2022-12-07T04:48:36;38.87;;;13.90;;
8036;SDS011;4061;51.360;7.340;2022-12-07T04:51:03;35.70;;;14.07;;
8036;SDS011;4061;51.360;7.340;2022-12-07T04:53:31;33.63;;;14.03;;
8036;SDS011;4061;51.360;7.340;2022-12-07T04:55:59;28.47;;;12.87;;
8036;SDS011;4061;51.360;7.340;2022-12-07T04:58:27;31.80;;;12.87;;
8036;SDS011;4061;51.360;7.340;2022-12-07T05:00:55;32.03;;;12.17;;
8036;SDS011;4061;51.360;7.340;2022-12-07T05:03:22;34.97;;;13.07;;
8036;SDS011;4061;51.360;7.340;2022-12-07T05:05:49;26.47;;;12.03;;
8036;SDS011;4061;51.360;7.340;2022-12-07T05:08:16;29.27;;;11.90;;
8036;SDS011;4061;51.360;7.340;2022-12-07T05:10:44;27.07;;;11.33;;
8036;SDS011;4061;51.360;7.340;2022-12-07T05:13:12;25.37;;;12.47;;
8036;SDS011;4061;51.360;7.340;2022-12-07T05:15:39;33.50;;;11.53;;
8036;SDS011;4061;51.360;7.340;2022-12-07T05:18:07;31.67;;;12.23;;
8036;SDS011;4061;51.360;7.340;2022-12-07T05:20:34;33.73;;;11.93;;
8036;SDS011;4061;51.360;7.340;2022-12-07T05:23:02;22.17;;;11.10;;
8036;SDS011;4061;51.360;7.340;2022-12-07T05:25:29;27.40;;;12.23;;
8036;SDS011;4061;51.360;7.340;2022-12-07T05:27:56;29.07;;;13.23;;
8036;SDS011;4061;51.360;7.340;2022-12-07T05:30:25;30.20;;;13.23;;
8036;SDS011;4061;51.360;7.340;2022-12-07T05:32:52;25.17;;;13.00;;
8036;SDS011;4061;51.360;7.340;2022-12-07T05:35:19;26.30;;;12.47;;
8036;SDS011;4061;51.360;7.340;2022-12-07T05:37:46;40.13;;;13.03;;
8036;SDS011;4061;51.360;7.340;2022-12-07T05:40:14;32.20;;;12.37;;
8036;SDS011;4061;51.360;7.340;2022-12-07T05:42:41;25.47;;;12.40;;
8036;SDS011;4061;51.360;7.340;2022-12-07T05:45:09;27.13;;;12.50;;
8036;SDS011;4061;51.360;7.340;2022-12-07T05:47:37;23.13;;;11.83;;
8036;SDS011;4061;51.360;7.340;2022-12-07T05:50:05;28.07;;;11.43;;
8036;SDS011;4061;51.360;7.340;2022-12-07T05:52:33;34.60;;;12.60;;
8036;SDS011;4061;51.360;7.340;2022-12-07T05:55:00;31.47;;;14.20;;
8036;SDS011;4061;51.360;7.340;2022-12-07T05:57:27;37.13;;;12.37;;
8036;SDS011;4061;51.360;7.340;2022-12-07T05:59:54;37.47;;;14.40;;
8036;SDS011;4061;51.360;7.340;2022-12-07T06:02:20;30.60;;;12.33;;
8036;SDS011;4061;51.360;7.340;2022-12-07T06:04:49;30.97;;;11.77;;
8036;SDS011;4061;51.360;7.340;2022-12-07T06:07:16;33.87;;;12.50;;
8036;SDS011;4061;51.360;7.340;2022-12-07T06:09:43;26.53;;;12.13;;
8036;SDS011;4061;51.360;7.340;2022-12-07T06:12:11;36.40;;;12.03;;
8036;SDS011;4061;51.360;7.340;2022-12-07T06:14:55;31.27;;;13.70;;
8036;SDS011;4061;51.360;7.340;2022-12-07T06:17:23;26.43;;;12.00;;
8036;SDS011;4061;51.360;7.340;2022-12-07T06:19:51;36.50;;;11.63;;
8036;SDS011;4061;51.360;7.340;2022-12-07T06:22:19;36.90;;;11.63;;
8036;SDS011;4061;51.360;7.340;2022-12-07T06:24:46;25.53;;;11.37;;
8036;SDS011;4061;51.360;7.340;2022-12-07T06:27:13;28.90;;;11.70;;
8036;SDS011;4061;51.360;7.340;2022-12-07T06:29:40;34.70;;;11.73;;
8036;SDS011;4061;51.360;7.340;2022-12-07T06:32:07;26.07;;;10.37;;
8036;SDS011;4061;51.360;7.340;2022-12-07T06:34:35;25.60;;;11.43;;
8036;SDS011;4061;51.360;7.340;2022-12-07T06:37:03;22.17;;;11.60;;
8036;SDS011;4061;51.360;7.340;2022-12-07T06:39:30;20.33;;;10.17;;
8036;SDS011;4061;51.360;7.340;2022-12-07T06:41:57;24.13;;;10.87;;
8036;SDS011;4061;51.360;7.340;2022-12-07T06:44:25;24.37;;;11.40;;
8036;SDS011;4061;51.360;7.340;2022-12-07T06:46:52;31.80;;;12.07;;
8036;SDS011;4061;51.360;7.340;2022-12-07T06:49:19;25.13;;;11.63;;
8036;SDS011;4061;51.360;7.340;2022-12-07T06:51:47;31.17;;;12.23;;
8036;SDS011;4061;51.360;7.340;2022-12-07T06:54:15;30.73;;;12.70;;
8036;SDS011;4061;51.360;7.340;2022-12-07T06:56:43;27.17;;;11.67;;
8036;SDS011;4061;51.360;7.340;2022-12-07T06:59:10;36.27;;;11.13;;
8036;SDS011;4061;51.360;7.340;2022-12-07T07:01:37;29.53;;;10.93;;
8036;SDS011;4061;51.360;7.340;2022-12-07T07:04:04;24.90;;;10.60;;
8036;SDS011;4061;51.360;7.340;2022-12-07T07:06:32;22.70;;;10.03;;
8036;SDS011;4061;51.360;7.340;2022-12-07T07:08:59;29.17;;;10.20;;
8036;SDS011;4061;51.360;7.340;2022-12-07T07:11:28;29.23;;;12.20;;
8036;SDS011;4061;51.360;7.340;2022-12-07T07:13:55;24.33;;;10.63;;
8036;SDS011;4061;51.360;7.340;2022-12-07T07:16:27;25.17;;;10.43;;
8036;SDS011;4061;51.360;7.340;2022-12-07T07:18:54;26.53;;;11.03;;
8036;SDS011;4061;51.360;7.340;2022-12-07T07:21:21;20.80;;;9.93;;
8036;SDS011;4061;51.360;7.340;2022-12-07T07:23:48;19.60;;;9.47;;
8036;SDS011;4061;51.360;7.340;2022-12-07T07:26:15;26.23;;;9.90;;
8036;SDS011;4061;51.360;7.340;2022-12-07T07:28:44;19.97;;;9.50;;
8036;SDS011;4061;51.360;7.340;2022-12-07T07:31:11;19.10;;;8.23;;
8036;SDS011;4061;51.360;7.340;2022-12-07T07:33:38;23.47;;;8.30;;
8036;SDS011;4061;51.360;7.340;2022-12-07T07:36:05;15.13;;;8.73;;
8036;SDS011;4061;51.360;7.340;2022-12-07T07:38:33;18.47;;;8.77;;
8036;SDS011;4061;51.360;7.340;2022-12-07T07:41:00;18.80;;;8.63;;
8036;SDS011;4061;51.360;7.340;2022-12-07T07:43:27;23.67;;;9.37;;
8036;SDS011;4061;51.360;7.340;2022-12-07T07:45:56;20.90;;;8.37;;
8036;SDS011;4061;51.360;7.340;2022-12-07T07:48:23;22.37;;;9.20;;
8036;SDS011;4061;51.360;7.340;2022-12-07T07:50:50;24.90;;;10.53;;
8036;SDS011;4061;51.360;7.340;2022-12-07T07:53:17;21.17;;;9.13;;
8036;SDS011;4061;51.360;7.340;2022-12-07T07:55:49;20.47;;;10.70;;
8036;SDS011;4061;51.360;7.340;2022-12-07T07:58:17;25.57;;;10.73;;
8036;SDS011;4061;51.360;7.340;2022-12-07T08:00:44;21.80;;;8.80;;
8036;SDS011;4061;51.360;7.340;2022-12-07T08:03:13;19.23;;;9.47;;
8036;SDS011;4061;51.360;7.340;2022-12-07T08:05:40;29.30;;;9.67;;
8036;SDS011;4061;51.360;7.340;2022-12-07T08:08:07;28.43;;;10.10;;
8036;SDS011;4061;51.360;7.340;2022-12-07T08:10:34;19.70;;;9.40;;
8036;SDS011;4061;51.360;7.340;2022-12-07T08:13:02;19.07;;;9.60;;
8036;SDS011;4061;51.360;7.340;2022-12-07T08:15:39;16.80;;;7.77;;
8036;SDS011;4061;51.360;7.340;2022-12-07T08:18:07;16.27;;;7.77;;
8036;SDS011;4061;51.360;7.340;2022-12-07T08:20:36;17.10;;;8.13;;
8036;SDS011;4061;51.360;7.340;2022-12-07T08:23:04;23.00;;;8.80;;
8036;SDS011;4061;51.360;7.340;2022-12-07T08:25:31;15.33;;;7.23;;
8036;SDS011;4061;51.360;7.340;2022-12-07T08:27:59;15.67;;;6.80;;
8036;SDS011;4061;51.360;7.340;2022-12-07T08:30:26;16.60;;;7.30;;
8036;SDS011;4061;51.360;7.340;2022-12-07T08:32:53;16.57;;;7.03;;
8036;SDS011;4061;51.360;7.340;2022-12-07T08:35:21;9.63;;;7.00;;
8036;SDS011;4061;51.360;7.340;2022-12-07T08:37:49;20.73;;;7.27;;
8036;SDS011;4061;51.360;7.340;2022-12-07T08:40:16;14.60;;;7.13;;
8036;SDS011;4061;51.360;7.340;2022-12-07T08:42:44;19.70;;;6.93;;
8036;SDS011;4061;51.360;7.340;2022-12-07T08:45:13;8.30;;;5.13;;
8036;SDS011;4061;51.360;7.340;2022-12-07T08:47:45;20.77;;;6.60;;
8036;SDS011;4061;51.360;7.340;2022-12-07T08:50:13;13.87;;;5.60;;
8036;SDS011;4061;51.360;7.340;2022-12-07T08:52:40;14.30;;;6.00;;
8036;SDS011;4061;51.360;7.340;2022-12-07T08:55:10;13.57;;;5.97;;
8036;SDS011;4061;51.360;7.340;2022-12-07T08:57:38;8.80;;;5.13;;
8036;SDS011;4061;51.360;7.340;2022-12-07T09:00:06;14.80;;;5.83;;
8036;SDS011;4061;51.360;7.340;2022-12-07T09:02:34;14.30;;;6.03;;
8036;SDS011;4061;51.360;7.340;2022-12-07T09:05:01;10.67;;;5.27;;
8036;SDS011;4061;51.360;7.340;2022-12-07T09:07:28;12.90;;;5.67;;
8036;SDS011;4061;51.360;7.340;2022-12-07T09:09:57;9.53;;;5.40;;
8036;SDS011;4061;51.360;7.340;2022-12-07T09:12:25;10.50;;;5.00;;
8036;SDS011;4061;51.360;7.340;2022-12-07T09:14:52;14.23;;;5.63;;
8036;SDS011;4061;51.360;7.340;2022-12-07T09:17:19;15.63;;;5.57;;
8036;SDS011;4061;51.360;7.340;2022-12-07T09:19:46;9.17;;;4.57;;
8036;SDS011;4061;51.360;7.340;2022-12-07T09:22:14;6.17;;;4.47;;
8036;SDS011;4061;51.360;7.340;2022-12-07T09:24:41;6.90;;;4.63;;
8036;SDS011;4061;51.360;7.340;2022-12-07T09:27:08;7.43;;;5.20;;
8036;SDS011;4061;51.360;7.340;2022-12-07T09:29:36;13.87;;;4.77;;
8036;SDS011;4061;51.360;7.340;2022-12-07T09:32:04;11.27;;;5.27;;
8036;SDS011;4061;51.360;7.340;2022-12-07T09:34:31;11.40;;;4.97;;
8036;SDS011;4061;51.360;7.340;2022-12-07T09:37:00;9.87;;;4.87;;
8036;SDS011;4061;51.360;7.340;2022-12-07T09:39:29;17.07;;;5.13;;
8036;SDS011;4061;51.360;7.340;2022-12-07T09:41:56;8.57;;;4.40;;
8036;SDS011;4061;51.360;7.340;2022-12-07T09:44:25;7.63;;;4.67;;
8036;SDS011;4061;51.360;7.340;2022-12-07T09:46:54;6.97;;;4.80;;
8036;SDS011;4061;51.360;7.340;2022-12-07T09:49:22;8.40;;;4.00;;
8036;SDS011;4061;51.360;7.340;2022-12-07T09:51:59;16.57;;;5.60;;
8036;SDS011;4061;51.360;7.340;2022-12-07T09:54:27;8.27;;;5.13;;
8036;SDS011;4061;51.360;7.340;2022-12-07T09:56:55;8.83;;;5.17;;
8036;SDS011;4061;51.360;7.340;2022-12-07T09:59:22;15.60;;;6.03;;
8036;SDS011;4061;51.360;7.340;2022-12-07T10:01:50;11.40;;;5.83;;
8036;SDS011;4061;51.360;7.340;2022-12-07T10:04:19;13.60;;;5.23;;
8036;SDS011;4061;51.360;7.340;2022-12-07T10:06:47;15.47;;;6.73;;
8036;SDS011;4061;51.360;7.340;2022-12-07T10:09:16;13.60;;;5.63;;
8036;SDS011;4061;51.360;7.340;2022-12-07T10:12:00;12.50;;;6.50;;
8036;SDS011;4061;51.360;7.340;2022-12-07T10:14:28;13.07;;;7.03;;
8036;SDS011;4061;51.360;7.340;2022-12-07T10:16:55;17.80;;;7.70;;
8036;SDS011;4061;51.360;7.340;2022-12-07T10:19:25;14.80;;;7.10;;
8036;SDS011;4061;51.360;7.340;2022-12-07T10:22:08;10.90;;;5.90;;
8036;SDS011;4061;51.360;7.340;2022-12-07T10:24:36;13.70;;;7.03;;
8036;SDS011;4061;51.360;7.340;2022-12-07T10:27:04;9.87;;;6.17;;
8036;SDS011;4061;51.360;7.340;2022-12-07T10:29:32;14.03;;;6.53;;
8036;SDS011;4061;51.360;7.340;2022-12-07T10:32:00;12.07;;;7.07;;
8036;SDS011;4061;51.360;7.340;2022-12-07T10:34:30;19.77;;;6.50;;
8036;SDS011;4061;51.360;7.340;2022-12-07T10:37:12;10.63;;;5.67;;
8036;SDS011;4061;51.360;7.340;2022-12-07T10:39:41;14.73;;;6.43;;
8036;SDS011;4061;51.360;7.340;2022-12-07T10:42:15;6.77;;;4.77;;
8036;SDS011;4061;51.360;7.340;2022-12-07T10:44:42;10.30;;;6.23;;
8036;SDS011;4061;51.360;7.340;2022-12-07T10:47:21;9.17;;;6.00;;
8036;SDS011;4061;51.360;7.340;2022-12-07T10:53:00;11.63;;;5.10;;
8036;SDS011;4061;51.360;7.340;2022-12-07T10:55:33;7.57;;;4.90;;
8036;SDS011;4061;51.360;7.340;2022-12-07T10:58:08;9.93;;;4.57;;
8036;SDS011;4061;51.360;7.340;2022-12-07T11:00:42;6.17;;;4.27;;
8036;SDS011;4061;51.360;7.340;2022-12-07T11:03:29;9.17;;;5.37;;
8036;SDS011;4061;51.360;7.340;2022-12-07T11:06:02;8.13;;;3.50;;
8036;SDS011;4061;51.360;7.340;2022-12-07T11:08:39;8.00;;;3.83;;
8036;SDS011;4061;51.360;7.340;2022-12-07T11:11:09;10.33;;;3.50;;
8036;SDS011;4061;51.360;7.340;2022-12-07T11:13:40;4.67;;;3.40;;
8036;SDS011;4061;51.360;7.340;2022-12-07T11:16:16;3.53;;;3.07;;
8036;SDS011;4061;51.360;7.340;2022-12-07T11:18:49;6.60;;;3.50;;
8036;SDS011;4061;51.360;7.340;2022-12-07T11:21:20;3.30;;;2.97;;
8036;SDS011;4061;51.360;7.340;2022-12-07T11:23:53;4.07;;;2.50;;
8036;SDS011;4061;51.360;7.340;2022-12-07T11:26:28;4.90;;;2.97;;
8036;SDS011;4061;51.360;7.340;2022-12-07T11:29:06;5.80;;;2.97;;
8036;SDS011;4061;51.360;7.340;2022-12-07T11:31:38;5.23;;;2.77;;
8036;SDS011;4061;51.360;7.340;2022-12-07T11:34:12;2.80;;;2.40;;
8036;SDS011;4061;51.360;7.340;2022-12-07T11:36:43;9.00;;;2.53;;
8036;SDS011;4061;51.360;7.340;2022-12-07T11:39:14;3.77;;;2.80;;
8036;SDS011;4061;51.360;7.340;2022-12-07T11:41:43;11.80;;;3.50;;
8036;SDS011;4061;51.360;7.340;2022-12-07T11:44:17;7.00;;;3.40;;
8036;SDS011;4061;51.360;7.340;2022-12-07T11:46:47;6.63;;;3.23;;
8036;SDS011;4061;51.360;7.340;2022-12-07T11:49:19;5.70;;;4.50;;
8036;SDS011;4061;51.360;7.340;2022-12-07T11:51:48;9.10;;;4.30;;
8036;SDS011;4061;51.360;7.340;2022-12-07T11:54:17;11.70;;;3.70;;
8036;SDS011;4061;51.360;7.340;2022-12-07T11:56:46;9.50;;;3.77;;
8036;SDS011;4061;51.360;7.340;2022-12-07T11:59:16;11.57;;;4.10;;
8036;SDS011;4061;51.360;7.340;2022-12-07T12:01:47;7.97;;;4.53;;
8036;SDS011;4061;51.360;7.340;2022-12-07T12:04:23;6.87;;;4.80;;
8036;SDS011;4061;51.360;7.340;2022-12-07T12:06:52;6.83;;;4.87;;
8036;SDS011;4061;51.360;7.340;2022-12-07T12:09:22;6.97;;;5.87;;
8036;SDS011;4061;51.360;7.340;2022-12-07T12:14:36;7.87;;;5.27;;
8036;SDS011;4061;51.360;7.340;2022-12-07T12:17:11;6.17;;;5.27;;
8036;SDS011;4061;51.360;7.340;2022-12-07T12:19:43;9.97;;;5.80;;
8036;SDS011;4061;51.360;7.340;2022-12-07T12:22:30;10.27;;;5.00;;
8036;SDS011;4061;51.360;7.340;2022-12-07T12:25:02;9.10;;;5.33;;
8036;SDS011;4061;51.360;7.340;2022-12-07T12:27:31;8.07;;;6.00;;
8036;SDS011;4061;51.360;7.340;2022-12-07T12:30:00;12.40;;;5.07;;
8036;SDS011;4061;51.360;7.340;2022-12-07T12:32:30;12.90;;;5.47;;
8036;SDS011;4061;51.360;7.340;2022-12-07T12:35:17;15.67;;;5.83;;
8036;SDS011;4061;51.360;7.340;2022-12-07T12:37:48;11.63;;;6.60;;
8036;SDS011;4061;51.360;7.340;2022-12-07T12:48:46;7.50;;;4.63;;
8036;SDS011;4061;51.360;7.340;2022-12-07T12:54:03;7.57;;;4.63;;
8036;SDS011;4061;51.360;7.340;2022-12-07T12:56:35;10.43;;;3.83;;
8036;SDS011;4061;51.360;7.340;2022-12-07T12:59:21;9.03;;;3.87;;
8036;SDS011;4061;51.360;7.340;2022-12-07T13:01:49;5.33;;;3.93;;
8036;SDS011;4061;51.360;7.340;2022-12-07T13:07:00;17.67;;;4.07;;
8036;SDS011;4061;51.360;7.340;2022-12-07T13:09:28;15.57;;;4.70;;
8036;SDS011;4061;51.360;7.340;2022-12-07T13:11:58;7.70;;;4.00;;
8036;SDS011;4061;51.360;7.340;2022-12-07T13:14:40;2.93;;;2.73;;
8036;SDS011;4061;51.360;7.340;2022-12-07T13:17:08;8.90;;;3.60;;
8036;SDS011;4061;51.360;7.340;2022-12-07T13:25:10;5.37;;;1.60;;
8036;SDS011;4061;51.360;7.340;2022-12-07T13:27:40;5.60;;;2.43;;
8036;SDS011;4061;51.360;7.340;2022-12-07T13:30:11;3.03;;;1.80;;
8036;SDS011;4061;51.360;7.340;2022-12-07T13:32:40;5.67;;;2.00;;
8036;SDS011;4061;51.360;7.340;2022-12-07T13:37:49;5.63;;;1.67;;
8036;SDS011;4061;51.360;7.340;2022-12-07T13:40:19;2.13;;;1.97;;
8036;SDS011;4061;51.360;7.340;2022-12-07T13:42:47;4.33;;;2.50;;
8036;SDS011;4061;51.360;7.340;2022-12-07T13:45:20;4.47;;;2.30;;
8036;SDS011;4061;51.360;7.340;2022-12-07T13:48:08;4.20;;;2.43;;
8036;SDS011;4061;51.360;7.340;2022-12-07T13:50:37;7.70;;;2.90;;
8036;SDS011;4061;51.360;7.340;2022-12-07T13:53:07;4.03;;;2.13;;
8036;SDS011;4061;51.360;7.340;2022-12-07T13:55:39;3.53;;;2.03;;
8036;SDS011;4061;51.360;7.340;2022-12-07T13:58:10;5.00;;;2.03;;
8036;SDS011;4061;51.360;7.340;2022-12-07T14:00:39;8.00;;;1.57;;
8036;SDS011;4061;51.360;7.340;2022-12-07T14:03:22;10.90;;;2.03;;
8036;SDS011;4061;51.360;7.340;2022-12-07T14:06:02;6.93;;;2.07;;
8036;SDS011;4061;51.360;7.340;2022-12-07T14:08:30;9.20;;;2.17;;
8036;SDS011;4061;51.360;7.340;2022-12-07T14:10:59;8.77;;;2.73;;
8036;SDS011;4061;51.360;7.340;2022-12-07T14:13:28;3.50;;;2.83;;
8036;SDS011;4061;51.360;7.340;2022-12-07T14:15:55;5.57;;;2.93;;
8036;SDS011;4061;51.360;7.340;2022-12-07T14:18:26;6.93;;;2.97;;
8036;SDS011;4061;51.360;7.340;2022-12-07T14:21:02;4.57;;;3.10;;
8036;SDS011;4061;51.360;7.340;2022-12-07T14:23:29;9.67;;;3.40;;
8036;SDS011;4061;51.360;7.340;2022-12-07T14:26:06;6.37;;;3.30;;
8036;SDS011;4061;51.360;7.340;2022-12-07T14:28:35;14.93;;;3.50;;
8036;SDS011;4061;51.360;7.340;2022-12-07T14:31:03;7.67;;;3.20;;
8036;SDS011;4061;51.360;7.340;2022-12-07T14:33:30;7.63;;;3.33;;
8036;SDS011;4061;51.360;7.340;2022-12-07T14:35:57;9.23;;;3.63;;
8036;SDS011;4061;51.360;7.340;2022-12-07T14:38:25;6.07;;;2.03;;
8036;SDS011;4061;51.360;7.340;2022-12-07T14:40:52;8.70;;;2.20;;
8036;SDS011;4061;51.360;7.340;2022-12-07T14:43:41;1.47;;;1.37;;
8036;SDS011;4061;51.360;7.340;2022-12-07T14:46:08;1.53;;;1.30;;
8036;SDS011;4061;51.360;7.340;2022-12-07T14:48:36;1.60;;;1.50;;
8036;SDS011;4061;51.360;7.340;2022-12-07T14:51:03;5.23;;;1.20;;
8036;SDS011;4061;51.360;7.340;2022-12-07T14:53:31;3.97;;;1.27;;
8036;SDS011;4061;51.360;7.340;2022-12-07T14:56:00;3.23;;;1.47;;
8036;SDS011;4061;51.360;7.340;2022-12-07T14:58:30;2.40;;;0.80;;
8036;SDS011;4061;51.360;7.340;2022-12-07T15:00:59;4.07;;;1.43;;
8036;SDS011;4061;51.360;7.340;2022-12-07T15:03:26;2.47;;;1.43;;
8036;SDS011;4061;51.360;7.340;2022-12-07T15:05:53;2.83;;;1.00;;
8036;SDS011;4061;51.360;7.340;2022-12-07T15:08:20;5.47;;;1.47;;
8036;SDS011;4061;51.360;7.340;2022-12-07T15:10:47;2.30;;;1.80;;
8036;SDS011;4061;51.360;7.340;2022-12-07T15:13:14;3.33;;;1.50;;
8036;SDS011;4061;51.360;7.340;2022-12-07T15:16:00;5.00;;;1.57;;
8036;SDS011;4061;51.360;7.340;2022-12-07T15:18:28;7.37;;;1.27;;
8036;SDS011;4061;51.360;7.340;2022-12-07T15:20:55;9.17;;;1.77;;
8036;SDS011;4061;51.360;7.340;2022-12-07T15:23:22;2.37;;;1.23;;
8036;SDS011;4061;51.360;7.340;2022-12-07T15:25:49;3.40;;;1.60;;
8036;SDS011;4061;51.360;7.340;2022-12-07T15:28:16;2.47;;;1.93;;
8036;SDS011;4061;51.360;7.340;2022-12-07T15:30:44;11.63;;;1.87;;
8036;SDS011;4061;51.360;7.340;2022-12-07T15:33:13;6.30;;;1.87;;
8036;SDS011;4061;51.360;7.340;2022-12-07T15:35:40;3.90;;;1.77;;
8036;SDS011;4061;51.360;7.340;2022-12-07T15:38:08;6.00;;;1.80;;
8036;SDS011;4061;51.360;7.340;2022-12-07T15:40:35;5.03;;;1.90;;